createdAt,value
2022-08-22T00:01:02.099Z,16.75
2022-08-22T00:02:49.334Z,17.88
2022-08-22T00:02:49.564Z,17.41
2022-08-22T00:02:57.967Z,16.85
2022-08-22T00:03:00.126Z,18.93
2022-08-22T00:03:15.001Z,16.87
2022-08-22T00:03:23.640Z,16.76
2022-08-22T00:05:32.171Z,16.81
2022-08-22T00:07:41.237Z,16.80
2022-08-22T00:09:49.645Z,16.78
2022-08-22T00:11:59.279Z,16.74
2022-08-22T00:14:10.897Z,17.16
2022-08-22T00:16:17.445Z,16.95
2022-08-22T00:18:26.475Z,16.84
2022-08-22T00:20:34.834Z,16.74
2022-08-22T00:22:43.404Z,16.65
2022-08-22T00:24:53.371Z,16.58
2022-08-22T00:27:00.894Z,16.60
2022-08-22T00:29:06.758Z,16.57
2022-08-22T00:31:15.358Z,16.63
2022-08-22T00:33:30.894Z,16.63
2022-08-22T00:35:39.555Z,16.67
2022-08-22T00:37:52.543Z,16.65
2022-08-22T00:40:03.318Z,16.61
2022-08-22T00:42:33.646Z,16.68
2022-08-22T00:45:04.150Z,16.56
2022-08-22T00:47:19.813Z,16.41
2022-08-22T00:49:41.469Z,16.40
2022-08-22T00:52:06.619Z,16.43
2022-08-22T00:54:18.032Z,16.42
2022-08-22T00:56:49.654Z,16.39
2022-08-22T00:59:31.400Z,16.39
2022-08-22T01:01:36.080Z,16.35
2022-08-22T01:04:18.576Z,16.27
2022-08-22T01:06:28.358Z,16.30
2022-08-22T01:08:44.179Z,16.28
2022-08-22T01:11:04.371Z,16.24
2022-08-22T01:13:22.602Z,16.19
2022-08-22T01:15:30.432Z,16.15
2022-08-22T01:17:54.241Z,16.10
2022-08-22T01:20:23.948Z,16.11
2022-08-22T01:23:00.078Z,16.04
2022-08-22T01:25:50.972Z,16.06
2022-08-22T01:28:15.620Z,16.05
2022-08-22T01:30:29.873Z,16.02
2022-08-22T01:33:19.021Z,16.02
2022-08-22T01:35:50.058Z,15.96
2022-08-22T01:38:22.751Z,15.98
2022-08-22T01:41:01.719Z,15.98
2022-08-22T01:43:09.918Z,15.95
2022-08-22T01:45:41.822Z,15.93
2022-08-22T01:47:49.981Z,15.90
2022-08-22T01:50:00.151Z,15.86
2022-08-22T01:52:11.145Z,15.89
2022-08-22T01:54:24.574Z,15.97
2022-08-22T01:56:33.083Z,15.90
2022-08-22T01:58:37.509Z,15.87
2022-08-22T02:00:54.597Z,15.90
2022-08-22T02:03:07.910Z,15.82
2022-08-22T02:05:23.585Z,15.78
2022-08-22T02:07:32.084Z,15.76
2022-08-22T02:09:43.064Z,15.76
2022-08-22T02:11:50.822Z,15.76
2022-08-22T02:14:00.101Z,15.78
2022-08-22T02:16:09.616Z,15.80
2022-08-22T02:18:25.803Z,15.79
2022-08-22T02:20:32.909Z,15.80
2022-08-22T02:22:52.363Z,15.75
2022-08-22T02:25:02.603Z,15.74
2022-08-22T02:27:19.454Z,15.72
2022-08-22T02:29:31.039Z,15.72
2022-08-22T02:31:39.873Z,15.73
2022-08-22T02:33:50.185Z,15.73
2022-08-22T02:35:55.405Z,15.63
2022-08-22T02:38:12.347Z,15.71
2022-08-22T02:40:26.036Z,15.68
2022-08-22T02:42:36.818Z,15.69
2022-08-22T02:44:52.327Z,15.62
2022-08-22T02:47:00.993Z,15.64
2022-08-22T02:49:09.567Z,15.68
2022-08-22T02:51:21.341Z,15.70
2022-08-22T02:53:33.347Z,15.71
2022-08-22T02:55:46.897Z,15.75
2022-08-22T02:57:56.745Z,15.75
2022-08-22T03:00:31.527Z,15.78
2022-08-22T03:02:35.696Z,15.69
2022-08-22T03:04:50.893Z,15.70
2022-08-22T03:07:11.207Z,15.67
2022-08-22T03:09:30.615Z,15.68
2022-08-22T03:11:38.897Z,15.63
2022-08-22T03:13:49.367Z,15.66
2022-08-22T03:15:56.115Z,15.62
2022-08-22T03:18:03.012Z,15.60
2022-08-22T03:20:11.515Z,15.55
2022-08-22T03:22:19.226Z,15.51
2022-08-22T03:24:24.196Z,15.51
2022-08-22T03:26:29.984Z,15.48
2022-08-22T03:28:38.072Z,15.46
2022-08-22T03:30:43.438Z,15.47
2022-08-22T03:32:52.309Z,15.47
2022-08-22T03:34:57.642Z,15.50
2022-08-22T03:37:06.697Z,15.48
2022-08-22T03:39:16.655Z,15.57
2022-08-22T03:41:43.054Z,15.64
2022-08-22T03:44:17.602Z,15.66
2022-08-22T03:46:56.099Z,15.76
2022-08-22T03:49:13.475Z,15.78
2022-08-22T03:51:31.048Z,15.78
2022-08-22T03:54:05.141Z,15.80
2022-08-22T03:56:39.848Z,15.81
2022-08-22T03:59:00.916Z,15.79
2022-08-22T04:01:19.422Z,15.77
2022-08-22T04:03:47.025Z,15.82
2022-08-22T04:06:11.482Z,15.88
2022-08-22T04:08:33.891Z,15.92
2022-08-22T04:10:57.672Z,16.13
2022-08-22T04:13:44.992Z,16.27
2022-08-22T04:16:11.370Z,15.94
2022-08-22T04:18:28.803Z,15.94
2022-08-22T04:21:08.638Z,16.10
2022-08-22T04:23:44.601Z,16.05
2022-08-22T04:25:51.653Z,15.92
2022-08-22T04:28:00.640Z,15.75
2022-08-22T04:30:09.155Z,15.67
2022-08-22T04:32:18.514Z,15.66
2022-08-22T04:34:28.506Z,15.65
2022-08-22T04:36:35.361Z,15.79
2022-08-22T04:38:42.143Z,15.80
2022-08-22T04:40:48.597Z,15.80
2022-08-22T04:42:54.226Z,15.76
2022-08-22T04:45:05.623Z,15.68
2022-08-22T04:47:16.785Z,15.73
2022-08-22T04:49:24.760Z,15.75
2022-08-22T04:51:35.084Z,15.79
2022-08-22T04:54:06.448Z,16.10
2022-08-22T04:56:17.249Z,16.32
2022-08-22T04:58:32.142Z,16.24
2022-08-22T05:00:39.260Z,16.06
2022-08-22T05:02:49.204Z,16.14
2022-08-22T05:05:00.107Z,16.28
2022-08-22T05:07:09.920Z,16.20
2022-08-22T05:09:16.448Z,16.31
2022-08-22T05:11:21.245Z,16.52
2022-08-22T05:13:27.094Z,16.55
2022-08-22T05:15:33.343Z,16.56
2022-08-22T05:17:36.130Z,16.56
2022-08-22T05:19:42.008Z,16.56
2022-08-22T05:21:46.877Z,16.61
2022-08-22T05:23:57.325Z,16.73
2022-08-22T05:26:02.494Z,16.80
2022-08-22T05:28:10.464Z,16.86
2022-08-22T05:30:15.360Z,16.84
2022-08-22T05:32:21.946Z,16.83
2022-08-22T05:34:26.948Z,16.86
2022-08-22T05:36:35.443Z,16.92
2022-08-22T05:38:41.904Z,16.97
2022-08-22T05:40:47.133Z,17.06
2022-08-22T05:42:49.094Z,17.05
2022-08-22T05:44:50.974Z,17.14
2022-08-22T05:47:00.869Z,17.17
2022-08-22T05:49:04.988Z,17.31
2022-08-22T05:51:14.881Z,17.42
2022-08-22T05:53:29.225Z,17.58
2022-08-22T05:55:37.429Z,17.63
2022-08-22T05:57:41.841Z,17.79
2022-08-22T05:59:46.099Z,17.92
2022-08-22T06:02:00.376Z,17.96
2022-08-22T06:04:06.525Z,17.95
2022-08-22T06:06:14.236Z,17.86
2022-08-22T06:08:20.136Z,17.94
2022-08-22T06:10:26.032Z,17.89
2022-08-22T06:12:34.230Z,18.05
2022-08-22T06:14:41.973Z,18.25
2022-08-22T06:16:48.933Z,18.38
2022-08-22T06:18:51.613Z,18.42
2022-08-22T06:20:55.895Z,18.58
2022-08-22T06:23:00.618Z,19.08
2022-08-22T06:25:11.411Z,19.26
2022-08-22T06:27:16.189Z,19.31
2022-08-22T06:29:36.796Z,19.37
2022-08-22T06:31:43.271Z,19.51
2022-08-22T06:34:01.082Z,19.54
2022-08-22T06:36:06.996Z,19.62
2022-08-22T06:38:09.408Z,19.67
2022-08-22T06:40:15.263Z,19.66
2022-08-22T06:42:22.007Z,19.75
2022-08-22T06:44:28.278Z,19.76
2022-08-22T06:46:34.348Z,19.85
2022-08-22T06:48:36.806Z,19.92
2022-08-22T06:50:41.595Z,20.06
2022-08-22T06:52:51.493Z,20.06
2022-08-22T06:54:58.718Z,20.20
2022-08-22T06:57:04.366Z,20.22
2022-08-22T06:59:09.088Z,20.22
2022-08-22T07:01:14.013Z,20.30
2022-08-22T07:03:20.685Z,20.32
2022-08-22T07:05:25.818Z,20.39
2022-08-22T07:07:28.212Z,20.52
2022-08-22T07:09:35.508Z,20.61
2022-08-22T07:11:39.248Z,20.62
2022-08-22T07:13:45.415Z,20.67
2022-08-22T07:15:53.292Z,20.71
2022-08-22T07:17:59.313Z,20.69
2022-08-22T07:20:09.195Z,20.77
2022-08-22T07:22:13.505Z,20.83
2022-08-22T07:24:20.113Z,20.81
2022-08-22T07:26:30.868Z,20.87
2022-08-22T07:28:50.931Z,20.88
2022-08-22T07:31:07.312Z,20.91
2022-08-22T07:33:26.972Z,20.97
2022-08-22T07:35:35.566Z,21.01
2022-08-22T07:37:49.958Z,21.01
2022-08-22T07:39:54.867Z,20.98
2022-08-22T07:42:04.568Z,21.12
2022-08-22T07:44:13.178Z,21.15
2022-08-22T07:46:28.284Z,21.19
2022-08-22T07:48:44.710Z,21.31
2022-08-22T07:51:01.444Z,21.35
2022-08-22T07:53:09.187Z,21.25
2022-08-22T07:55:17.523Z,21.27
2022-08-22T07:57:26.736Z,21.31
2022-08-22T07:59:31.025Z,21.47
2022-08-22T08:01:34.529Z,21.54
2022-08-22T08:03:37.348Z,21.56
2022-08-22T08:05:43.503Z,21.65
2022-08-22T08:07:46.624Z,21.64
2022-08-22T08:09:52.617Z,21.77
2022-08-22T08:11:54.576Z,21.92
2022-08-22T08:14:01.335Z,22.01
2022-08-22T08:16:06.468Z,22.17
2022-08-22T08:18:13.551Z,22.20
2022-08-22T08:20:17.373Z,22.34
2022-08-22T08:22:23.041Z,22.30
2022-08-22T08:24:29.112Z,22.43
2022-08-22T08:26:42.008Z,22.37
2022-08-22T08:28:48.820Z,22.39
2022-08-22T08:30:56.032Z,22.33
2022-08-22T08:33:25.581Z,22.28
2022-08-22T08:35:28.993Z,22.39
2022-08-22T08:37:41.129Z,22.61
2022-08-22T08:39:48.548Z,22.49
2022-08-22T08:41:56.990Z,22.32
2022-08-22T08:44:05.704Z,22.22
2022-08-22T08:46:39.385Z,22.24
2022-08-22T08:49:06.411Z,22.12
2022-08-22T08:51:20.356Z,22.23
2022-08-22T08:53:48.964Z,22.38
2022-08-22T08:55:57.508Z,22.35
2022-08-22T08:58:35.913Z,22.39
2022-08-22T09:00:53.068Z,22.33
2022-08-22T09:03:07.134Z,22.33
2022-08-22T09:05:48.757Z,22.17
2022-08-22T09:08:22.583Z,22.01
2022-08-22T09:11:09.922Z,22.14
2022-08-22T09:13:41.152Z,22.16
2022-08-22T09:16:05.088Z,22.21
2022-08-22T09:18:28.855Z,22.24
2022-08-22T09:21:02.309Z,22.10
2022-08-22T09:23:41.235Z,22.23
2022-08-22T09:25:50.375Z,22.37
2022-08-22T09:28:01.963Z,22.56
2022-08-22T09:30:11.640Z,22.55
2022-08-22T09:32:20.408Z,22.55
2022-08-22T09:34:32.391Z,22.35
2022-08-22T09:36:47.521Z,22.42
2022-08-22T09:38:56.602Z,22.52
2022-08-22T09:41:11.464Z,22.76
2022-08-22T09:43:21.156Z,22.88
2022-08-22T09:45:45.088Z,22.90
2022-08-22T09:47:58.280Z,22.79
2022-08-22T09:50:17.023Z,22.92
2022-08-22T09:52:34.130Z,23.04
2022-08-22T09:54:44.428Z,23.18
2022-08-22T09:57:01.789Z,23.25
2022-08-22T09:59:09.851Z,23.22
2022-08-22T10:01:22.159Z,22.99
2022-08-22T10:03:50.965Z,22.82
2022-08-22T10:06:00.858Z,22.96
2022-08-22T10:08:19.834Z,22.78
2022-08-22T10:10:43.282Z,22.76
2022-08-22T10:12:52.445Z,22.86
2022-08-22T10:15:09.942Z,23.00
2022-08-22T10:17:21.749Z,23.16
2022-08-22T10:19:30.073Z,23.18
2022-08-22T10:21:39.653Z,23.47
2022-08-22T10:23:48.842Z,23.70
2022-08-22T10:25:54.475Z,23.46
2022-08-22T10:28:11.578Z,23.52
2022-08-22T10:30:18.889Z,23.66
2022-08-22T10:32:30.659Z,23.83
2022-08-22T10:34:37.471Z,23.65
2022-08-22T10:36:53.075Z,23.42
2022-08-22T10:39:01.353Z,23.68
2022-08-22T10:41:27.552Z,23.62
2022-08-22T10:43:38.339Z,23.69
2022-08-22T10:45:45.342Z,23.68
2022-08-22T10:48:28.790Z,23.67
2022-08-22T10:50:34.575Z,23.63
2022-08-22T10:52:45.628Z,23.50
2022-08-22T10:54:51.195Z,23.63
2022-08-22T10:57:06.874Z,23.66
2022-08-22T10:59:23.021Z,23.86
2022-08-22T11:01:37.886Z,24.05
2022-08-22T11:03:46.585Z,24.17
2022-08-22T11:05:51.010Z,24.16
2022-08-22T11:08:03.850Z,24.29
2022-08-22T11:10:12.201Z,24.48
2022-08-22T11:12:26.711Z,24.76
2022-08-22T11:15:03.259Z,24.87
2022-08-22T11:17:30.313Z,24.98
2022-08-22T11:19:52.546Z,25.04
2022-08-22T11:22:07.251Z,24.71
2022-08-22T11:24:55.851Z,24.68
2022-08-22T11:27:07.232Z,24.70
2022-08-22T11:29:32.392Z,24.85
2022-08-22T11:31:51.258Z,24.70
2022-08-22T11:34:03.351Z,24.49
2022-08-22T11:36:26.345Z,24.28
2022-08-22T11:38:38.021Z,24.27
2022-08-22T11:40:45.388Z,24.31
2022-08-22T11:42:53.958Z,24.21
2022-08-22T11:44:59.943Z,24.09
2022-08-22T11:47:07.214Z,24.15
2022-08-22T11:49:34.038Z,24.16
2022-08-22T11:51:55.128Z,23.99
2022-08-22T11:54:07.275Z,23.98
2022-08-22T11:56:19.535Z,23.83
2022-08-22T11:58:33.204Z,23.63
2022-08-22T12:00:46.945Z,23.62
2022-08-22T12:03:06.314Z,23.42
2022-08-22T12:05:19.668Z,23.53
2022-08-22T12:07:29.830Z,23.64
2022-08-22T12:09:49.139Z,23.41
2022-08-22T12:12:18.867Z,23.48
2022-08-22T12:14:28.748Z,23.67
2022-08-22T12:16:40.699Z,23.60
2022-08-22T12:18:54.569Z,23.87
2022-08-22T12:21:15.851Z,24.23
2022-08-22T12:23:50.212Z,24.12
2022-08-22T12:26:10.987Z,24.01
2022-08-22T12:28:26.388Z,23.70
2022-08-22T12:30:33.636Z,23.26
2022-08-22T12:33:02.414Z,23.20
2022-08-22T12:35:19.467Z,23.29
2022-08-22T12:37:52.265Z,23.33
2022-08-22T12:40:26.340Z,23.48
2022-08-22T12:42:51.033Z,23.64
2022-08-22T12:45:10.348Z,23.81
2022-08-22T12:47:24.946Z,23.61
2022-08-22T12:49:39.596Z,23.76
2022-08-22T12:51:55.754Z,23.86
2022-08-22T12:54:33.787Z,23.81
2022-08-22T12:56:47.226Z,23.89
2022-08-22T12:59:10.495Z,23.96
2022-08-22T13:01:15.591Z,23.75
2022-08-22T13:03:24.631Z,23.44
2022-08-22T13:05:30.164Z,23.45
2022-08-22T13:07:37.658Z,23.70
2022-08-22T13:09:43.333Z,23.78
2022-08-22T13:11:47.345Z,23.86
2022-08-22T13:13:56.256Z,23.85
2022-08-22T13:16:01.393Z,23.78
2022-08-22T13:18:28.782Z,23.86
2022-08-22T13:20:36.140Z,23.67
2022-08-22T13:22:41.386Z,23.65
2022-08-22T13:24:52.452Z,23.62
2022-08-22T13:27:10.954Z,23.59
2022-08-22T13:29:27.191Z,23.46
2022-08-22T13:31:30.517Z,23.63
2022-08-22T13:33:36.277Z,23.55
2022-08-22T13:35:44.654Z,23.57
2022-08-22T13:37:58.305Z,23.41
2022-08-22T13:40:04.450Z,23.43
2022-08-22T13:42:14.296Z,23.46
2022-08-22T13:44:24.808Z,23.63
2022-08-22T13:46:29.322Z,23.64
2022-08-22T13:48:47.148Z,23.50
2022-08-22T13:51:01.541Z,23.50
2022-08-22T13:53:07.175Z,23.47
2022-08-22T13:55:13.643Z,23.49
2022-08-22T13:57:19.791Z,23.36
2022-08-22T13:59:50.265Z,23.29
2022-08-22T14:02:03.464Z,23.23
2022-08-22T14:04:28.492Z,23.27
2022-08-22T14:06:41.620Z,23.24
2022-08-22T14:08:46.976Z,23.21
2022-08-22T14:10:55.619Z,23.25
2022-08-22T14:13:39.674Z,23.29
2022-08-22T14:15:45.343Z,23.37
2022-08-22T14:17:50.764Z,23.38
2022-08-22T14:19:59.073Z,23.34
2022-08-22T14:22:07.137Z,23.15
2022-08-22T14:24:20.240Z,23.17
2022-08-22T14:26:32.946Z,23.27
2022-08-22T14:28:39.129Z,23.12
2022-08-22T14:30:59.401Z,22.96
2022-08-22T14:33:11.526Z,22.96
2022-08-22T14:35:23.178Z,22.95
2022-08-22T14:37:41.612Z,23.00
2022-08-22T14:39:48.322Z,23.12
2022-08-22T14:41:59.452Z,22.97
2022-08-22T14:44:07.322Z,23.00
2022-08-22T14:46:14.214Z,23.11
2022-08-22T14:48:31.627Z,23.20
2022-08-22T14:50:42.136Z,23.24
2022-08-22T14:52:46.800Z,23.26
2022-08-22T14:54:48.334Z,23.19
2022-08-22T14:56:54.810Z,23.00
2022-08-22T14:58:59.498Z,23.01
2022-08-22T15:01:10.068Z,22.98
2022-08-22T15:03:23.443Z,23.08
2022-08-22T15:05:25.154Z,23.09
2022-08-22T15:07:30.932Z,23.15
2022-08-22T15:09:40.551Z,23.16
2022-08-22T15:11:47.896Z,23.24
2022-08-22T15:13:56.329Z,23.26
2022-08-22T15:16:03.500Z,23.08
2022-08-22T15:18:17.690Z,23.00
2022-08-22T15:20:27.782Z,23.00
2022-08-22T15:22:30.212Z,23.04
2022-08-22T15:24:34.393Z,22.95
2022-08-22T15:26:40.581Z,23.01
2022-08-22T15:28:52.339Z,23.14
2022-08-22T15:31:03.992Z,23.25
2022-08-22T15:33:14.394Z,23.35
2022-08-22T15:35:28.283Z,23.34
2022-08-22T15:37:33.423Z,23.39
2022-08-22T15:39:59.250Z,23.19
2022-08-22T15:42:02.094Z,23.22
2022-08-22T15:44:15.121Z,23.20
2022-08-22T15:46:37.748Z,23.14
2022-08-22T15:48:40.326Z,23.12
2022-08-22T15:50:57.628Z,23.04
2022-08-22T15:53:17.052Z,23.05
2022-08-22T15:55:24.162Z,23.04
2022-08-22T15:57:29.280Z,23.01
2022-08-22T15:59:48.014Z,22.84
2022-08-22T16:01:58.729Z,22.82
2022-08-22T16:04:06.470Z,22.77
2022-08-22T16:06:11.153Z,22.78
2022-08-22T16:08:15.721Z,22.79
2022-08-22T16:10:34.570Z,22.80
2022-08-22T16:12:39.430Z,22.78
2022-08-22T16:14:48.214Z,22.62
2022-08-22T16:17:01.528Z,22.52
2022-08-22T16:19:14.550Z,22.52
2022-08-22T16:21:17.119Z,22.34
2022-08-22T16:23:18.773Z,22.32
2022-08-22T16:26:07.236Z,22.31
2022-08-22T16:28:36.103Z,22.17
2022-08-22T16:30:43.131Z,22.14
2022-08-22T16:32:54.194Z,22.14
2022-08-22T16:34:55.781Z,22.06
2022-08-22T16:37:30.733Z,21.96
2022-08-22T16:39:38.587Z,21.83
2022-08-22T16:41:43.351Z,21.80
2022-08-22T16:44:20.035Z,21.73
2022-08-22T16:46:34.641Z,21.76
2022-08-22T16:48:38.492Z,21.72
2022-08-22T16:50:40.147Z,21.73
2022-08-22T16:52:54.630Z,21.70
2022-08-22T16:54:57.798Z,21.59
2022-08-22T16:57:14.534Z,21.59
2022-08-22T16:59:45.423Z,21.52
2022-08-22T17:02:10.304Z,21.57
2022-08-22T17:04:21.723Z,21.62
2022-08-22T17:06:37.738Z,21.71
2022-08-22T17:08:53.106Z,21.77
2022-08-22T17:11:05.100Z,21.74
2022-08-22T17:13:22.271Z,21.80
2022-08-22T17:15:35.315Z,21.88
2022-08-22T17:17:55.513Z,21.85
2022-08-22T17:20:07.197Z,21.81
2022-08-22T17:22:20.230Z,21.88
2022-08-22T17:24:34.042Z,21.87
2022-08-22T17:26:50.224Z,21.87
2022-08-22T17:29:06.787Z,21.86
2022-08-22T17:31:16.819Z,21.83
2022-08-22T17:33:43.714Z,21.74
2022-08-22T17:35:59.191Z,21.68
2022-08-22T17:38:07.270Z,21.70
2022-08-22T17:40:26.162Z,21.63
2022-08-22T17:42:46.566Z,21.67
2022-08-22T17:44:58.632Z,21.61
2022-08-22T17:47:08.210Z,21.53
2022-08-22T17:49:18.234Z,21.61
2022-08-22T17:51:28.603Z,21.58
2022-08-22T17:53:39.154Z,21.61
2022-08-22T17:55:57.301Z,21.56
2022-08-22T17:58:04.639Z,21.51
2022-08-22T18:00:15.126Z,21.50
2022-08-22T18:02:23.226Z,21.46
2022-08-22T18:04:32.386Z,21.32
2022-08-22T18:06:43.886Z,21.26
2022-08-22T18:11:20.156Z,21.37
2022-08-22T18:13:37.471Z,21.39
2022-08-22T18:15:46.955Z,21.27
2022-08-22T18:17:55.148Z,21.34
2022-08-22T18:20:03.469Z,21.27
2022-08-22T18:22:10.123Z,21.22
2022-08-22T18:24:19.344Z,21.02
2022-08-22T18:26:28.058Z,21.10
2022-08-22T18:28:35.365Z,21.12
2022-08-22T18:30:51.770Z,21.14
2022-08-22T18:32:59.467Z,21.14
2022-08-22T18:35:09.348Z,21.18
2022-08-22T18:37:19.002Z,21.10
2022-08-22T18:39:29.015Z,21.07
2022-08-22T18:41:37.959Z,21.04
2022-08-22T18:43:43.035Z,21.06
2022-08-22T18:46:25.180Z,21.06
2022-08-22T18:48:31.914Z,20.96
2022-08-22T18:50:35.618Z,20.89
2022-08-22T18:52:39.104Z,20.94
2022-08-22T18:54:49.556Z,20.95
2022-08-22T18:56:52.967Z,21.00
2022-08-22T18:59:10.445Z,20.99
2022-08-22T19:01:41.321Z,20.91
2022-08-22T19:04:12.681Z,20.79
2022-08-22T19:06:46.885Z,20.84
2022-08-22T19:09:07.276Z,20.83
2022-08-22T19:11:25.891Z,20.66
2022-08-22T19:13:57.171Z,20.68
2022-08-22T19:16:14.152Z,20.71
2022-08-22T19:18:28.018Z,20.71
2022-08-22T19:20:33.430Z,20.63
2022-08-22T19:22:36.256Z,20.51
2022-08-22T19:25:04.456Z,20.58
2022-08-22T19:27:31.247Z,20.59
2022-08-22T19:29:55.042Z,20.48
2022-08-22T19:31:59.113Z,20.48
2022-08-22T19:34:15.565Z,20.52
2022-08-22T19:36:32.858Z,20.40
2022-08-22T19:38:52.905Z,20.33
2022-08-22T19:40:58.155Z,20.02
2022-08-22T19:43:01.594Z,19.99
2022-08-22T19:45:17.153Z,20.06
2022-08-22T19:47:27.011Z,20.12
2022-08-22T19:49:31.670Z,20.02
2022-08-22T19:51:35.010Z,20.01
2022-08-22T19:53:44.222Z,19.96
2022-08-22T19:55:58.264Z,19.91
2022-08-22T19:58:07.657Z,19.84
2022-08-22T20:00:13.621Z,19.71
2022-08-22T20:02:28.457Z,19.79
2022-08-22T20:04:48.684Z,19.77
2022-08-22T20:06:55.781Z,19.73
2022-08-22T20:09:12.094Z,19.74
2022-08-22T20:11:39.520Z,19.68
2022-08-22T20:13:41.398Z,19.64
2022-08-22T20:16:03.582Z,19.65
2022-08-22T20:18:46.508Z,19.61
2022-08-22T20:20:47.095Z,19.60
2022-08-22T20:22:55.226Z,19.60
2022-08-22T20:25:01.419Z,19.59
2022-08-22T20:27:14.938Z,19.54
2022-08-22T20:29:18.689Z,19.51
2022-08-22T20:31:25.065Z,19.37
2022-08-22T20:33:31.050Z,19.41
2022-08-22T20:35:38.203Z,19.37
2022-08-22T20:38:07.660Z,19.34
2022-08-22T20:40:53.497Z,19.27
2022-08-22T20:42:40.359Z,19.35
2022-08-22T20:44:53.241Z,19.31
2022-08-22T20:47:00.173Z,19.29
2022-08-22T20:49:02.652Z,19.34
2022-08-22T20:51:05.601Z,19.34
2022-08-22T20:53:14.344Z,19.29
2022-08-22T20:55:21.627Z,19.28
2022-08-22T20:57:23.234Z,19.18
2022-08-22T20:59:29.374Z,19.24
2022-08-22T21:01:31.207Z,19.07
2022-08-22T21:03:39.697Z,19.12
2022-08-22T21:05:43.723Z,19.09
2022-08-22T21:07:48.045Z,19.13
2022-08-22T21:09:58.875Z,19.20
2022-08-22T21:12:02.659Z,19.26
2022-08-22T21:14:18.062Z,19.21
2022-08-22T21:16:22.447Z,19.23
2022-08-22T21:18:28.356Z,19.22
2022-08-22T21:20:33.113Z,19.18
2022-08-22T21:22:34.669Z,19.16
2022-08-22T21:24:36.241Z,19.12
2022-08-22T21:26:40.696Z,19.07
2022-08-22T21:29:01.603Z,19.08
2022-08-22T21:31:12.515Z,19.06
2022-08-22T21:33:23.965Z,19.02
2022-08-22T21:35:29.518Z,19.05
2022-08-22T21:37:37.587Z,19.07
2022-08-22T21:39:45.810Z,19.01
2022-08-22T21:41:50.228Z,18.93
2022-08-22T21:43:54.114Z,18.97
2022-08-22T21:45:55.836Z,18.96
2022-08-22T21:47:58.352Z,18.97
2022-08-22T21:50:04.005Z,18.86
2022-08-22T21:52:05.514Z,18.92
2022-08-22T21:54:33.449Z,18.88
2022-08-22T21:56:34.960Z,18.76
2022-08-22T21:58:37.502Z,18.83
2022-08-22T22:00:48.900Z,18.86
2022-08-22T22:02:58.427Z,18.79
2022-08-22T22:05:01.246Z,18.79
2022-08-22T22:07:03.609Z,18.80
2022-08-22T22:09:05.526Z,18.79
2022-08-22T22:11:11.109Z,18.74
2022-08-22T22:13:13.613Z,18.77
2022-08-22T22:15:19.285Z,18.77
2022-08-22T22:17:22.166Z,18.78
2022-08-22T22:19:23.800Z,18.66
2022-08-22T22:21:25.405Z,18.56
2022-08-22T22:23:28.305Z,18.51
2022-08-22T22:25:40.415Z,18.49
2022-08-22T22:27:44.367Z,18.47
2022-08-22T22:29:45.966Z,18.63
2022-08-22T22:31:47.533Z,18.61
2022-08-22T22:33:50.547Z,18.63
2022-08-22T22:35:54.442Z,18.72
2022-08-22T22:37:56.213Z,18.74
2022-08-22T22:39:58.052Z,18.67
2022-08-22T22:41:59.709Z,18.76
2022-08-22T22:44:01.695Z,18.78
2022-08-22T22:46:03.307Z,18.76
2022-08-22T22:48:06.746Z,18.71
2022-08-22T22:50:09.977Z,18.73
2022-08-22T22:52:11.756Z,18.73
2022-08-22T22:54:13.369Z,18.82
2022-08-22T22:56:21.496Z,18.85
2022-08-22T22:58:23.413Z,18.86
2022-08-22T23:00:30.685Z,18.76
2022-08-22T23:02:32.891Z,18.78
2022-08-22T23:04:37.583Z,18.70
2022-08-22T23:06:40.505Z,18.81
2022-08-22T23:08:42.515Z,18.68
2022-08-22T23:10:44.776Z,18.70
2022-08-22T23:12:46.291Z,18.72
2022-08-22T23:14:47.879Z,18.71
2022-08-22T23:16:49.468Z,18.73
2022-08-22T23:18:50.971Z,18.74
2022-08-22T23:20:52.658Z,18.80
2022-08-22T23:22:55.535Z,18.81
2022-08-22T23:24:57.122Z,18.81
2022-08-22T23:26:59.762Z,18.77
2022-08-22T23:29:01.356Z,18.56
2022-08-22T23:31:11.212Z,18.46
2022-08-22T23:33:12.712Z,18.47
2022-08-22T23:35:14.210Z,18.45
2022-08-22T23:37:18.250Z,18.44
2022-08-22T23:39:22.496Z,18.57
2022-08-22T23:41:24.244Z,18.70
2022-08-22T23:43:25.738Z,18.82
2022-08-22T23:45:27.358Z,18.90
2022-08-22T23:47:28.968Z,18.89
2022-08-22T23:49:31.039Z,18.93
2022-08-22T23:51:32.927Z,18.95
2022-08-22T23:53:34.672Z,18.94
2022-08-22T23:55:37.522Z,18.97
2022-08-22T23:57:39.093Z,18.83
2022-08-22T23:59:46.305Z,18.74
